sensor_id;sensor_type;location;lat;lon;timestamp;P1;durP1;ratioP1;P2;durP2;ratioP2
19358;SDS011;9815;52.334;20.890;2022-08-21T00:01:05;7.40;;;4.18;;
19358;SDS011;9815;52.334;20.890;2022-08-21T00:03:38;9.25;;;4.30;;
19358;SDS011;9815;52.334;20.890;2022-08-21T00:06:07;8.20;;;4.03;;
19358;SDS011;9815;52.334;20.890;2022-08-21T00:08:39;8.90;;;4.95;;
19358;SDS011;9815;52.334;20.890;2022-08-21T00:11:08;6.88;;;4.07;;
19358;SDS011;9815;52.334;20.890;2022-08-21T00:13:38;7.53;;;4.63;;
19358;SDS011;9815;52.334;20.890;2022-08-21T00:16:07;4.82;;;4.13;;
19358;SDS011;9815;52.334;20.890;2022-08-21T00:18:36;7.47;;;4.43;;
19358;SDS011;9815;52.334;20.890;2022-08-21T00:21:04;8.88;;;4.68;;
19358;SDS011;9815;52.334;20.890;2022-08-21T00:23:33;7.73;;;4.83;;
19358;SDS011;9815;52.334;20.890;2022-08-21T00:26:02;8.32;;;4.70;;
19358;SDS011;9815;52.334;20.890;2022-08-21T00:28:31;6.93;;;4.43;;
19358;SDS011;9815;52.334;20.890;2022-08-21T00:31:01;8.38;;;4.80;;
19358;SDS011;9815;52.334;20.890;2022-08-21T00:33:30;10.73;;;4.88;;
19358;SDS011;9815;52.334;20.890;2022-08-21T00:36:00;9.27;;;5.10;;
19358;SDS011;9815;52.334;20.890;2022-08-21T00:38:29;8.70;;;5.10;;
19358;SDS011;9815;52.334;20.890;2022-08-21T00:40:58;6.68;;;4.40;;
19358;SDS011;9815;52.334;20.890;2022-08-21T00:43:48;8.43;;;5.00;;
19358;SDS011;9815;52.334;20.890;2022-08-21T00:46:19;6.07;;;4.50;;
19358;SDS011;9815;52.334;20.890;2022-08-21T00:48:53;8.57;;;4.60;;
19358;SDS011;9815;52.334;20.890;2022-08-21T00:51:25;7.50;;;4.20;;
19358;SDS011;9815;52.334;20.890;2022-08-21T00:54:04;8.63;;;4.70;;
19358;SDS011;9815;52.334;20.890;2022-08-21T00:56:44;9.13;;;5.03;;
19358;SDS011;9815;52.334;20.890;2022-08-21T00:59:16;11.47;;;4.43;;
19358;SDS011;9815;52.334;20.890;2022-08-21T01:01:47;7.13;;;4.50;;
19358;SDS011;9815;52.334;20.890;2022-08-21T01:04:16;8.77;;;4.57;;
19358;SDS011;9815;52.334;20.890;2022-08-21T01:06:45;7.20;;;4.65;;
19358;SDS011;9815;52.334;20.890;2022-08-21T01:09:13;7.83;;;4.90;;
19358;SDS011;9815;52.334;20.890;2022-08-21T01:11:42;6.10;;;4.57;;
19358;SDS011;9815;52.334;20.890;2022-08-21T01:14:11;9.47;;;4.93;;
19358;SDS011;9815;52.334;20.890;2022-08-21T01:16:40;7.35;;;4.78;;
19358;SDS011;9815;52.334;20.890;2022-08-21T01:19:14;7.00;;;4.70;;
19358;SDS011;9815;52.334;20.890;2022-08-21T01:21:47;6.87;;;4.63;;
19358;SDS011;9815;52.334;20.890;2022-08-21T01:24:15;7.50;;;4.83;;
19358;SDS011;9815;52.334;20.890;2022-08-21T01:26:44;9.37;;;5.27;;
19358;SDS011;9815;52.334;20.890;2022-08-21T01:29:14;6.30;;;4.60;;
19358;SDS011;9815;52.334;20.890;2022-08-21T01:31:47;9.43;;;5.07;;
19358;SDS011;9815;52.334;20.890;2022-08-21T01:34:16;10.60;;;5.20;;
19358;SDS011;9815;52.334;20.890;2022-08-21T01:36:47;8.67;;;5.10;;
19358;SDS011;9815;52.334;20.890;2022-08-21T01:39:15;9.97;;;4.93;;
19358;SDS011;9815;52.334;20.890;2022-08-21T01:41:44;8.50;;;5.13;;
19358;SDS011;9815;52.334;20.890;2022-08-21T01:44:12;9.73;;;5.40;;
19358;SDS011;9815;52.334;20.890;2022-08-21T01:46:40;7.73;;;4.90;;
19358;SDS011;9815;52.334;20.890;2022-08-21T01:49:08;6.90;;;4.80;;
19358;SDS011;9815;52.334;20.890;2022-08-21T01:51:37;13.00;;;5.23;;
19358;SDS011;9815;52.334;20.890;2022-08-21T01:54:06;10.60;;;5.30;;
19358;SDS011;9815;52.334;20.890;2022-08-21T01:56:35;9.00;;;5.77;;
19358;SDS011;9815;52.334;20.890;2022-08-21T01:59:05;8.23;;;5.27;;
19358;SDS011;9815;52.334;20.890;2022-08-21T02:01:34;9.50;;;5.63;;
19358;SDS011;9815;52.334;20.890;2022-08-21T02:04:02;8.10;;;5.23;;
19358;SDS011;9815;52.334;20.890;2022-08-21T02:06:31;12.13;;;6.10;;
19358;SDS011;9815;52.334;20.890;2022-08-21T02:08:59;7.10;;;5.27;;
19358;SDS011;9815;52.334;20.890;2022-08-21T02:11:29;9.77;;;5.60;;
19358;SDS011;9815;52.334;20.890;2022-08-21T02:13:57;8.10;;;5.60;;
19358;SDS011;9815;52.334;20.890;2022-08-21T02:16:25;10.50;;;5.57;;
19358;SDS011;9815;52.334;20.890;2022-08-21T02:18:58;10.03;;;5.70;;
19358;SDS011;9815;52.334;20.890;2022-08-21T02:21:26;9.10;;;5.53;;
19358;SDS011;9815;52.334;20.890;2022-08-21T02:23:55;11.77;;;5.73;;
19358;SDS011;9815;52.334;20.890;2022-08-21T02:26:23;10.77;;;5.90;;
19358;SDS011;9815;52.334;20.890;2022-08-21T02:28:53;8.30;;;5.60;;
19358;SDS011;9815;52.334;20.890;2022-08-21T02:31:21;8.23;;;5.27;;
19358;SDS011;9815;52.334;20.890;2022-08-21T02:33:50;9.73;;;6.13;;
19358;SDS011;9815;52.334;20.890;2022-08-21T02:36:19;8.20;;;5.63;;
19358;SDS011;9815;52.334;20.890;2022-08-21T02:38:48;9.73;;;5.73;;
19358;SDS011;9815;52.334;20.890;2022-08-21T02:41:19;11.23;;;6.10;;
19358;SDS011;9815;52.334;20.890;2022-08-21T02:43:48;8.80;;;5.87;;
19358;SDS011;9815;52.334;20.890;2022-08-21T02:46:18;9.37;;;6.13;;
19358;SDS011;9815;52.334;20.890;2022-08-21T02:48:47;9.40;;;6.10;;
19358;SDS011;9815;52.334;20.890;2022-08-21T02:51:18;12.03;;;5.90;;
19358;SDS011;9815;52.334;20.890;2022-08-21T02:53:49;10.93;;;5.87;;
19358;SDS011;9815;52.334;20.890;2022-08-21T02:56:18;8.23;;;5.73;;
19358;SDS011;9815;52.334;20.890;2022-08-21T02:58:49;11.17;;;6.10;;
19358;SDS011;9815;52.334;20.890;2022-08-21T03:01:21;11.37;;;6.20;;
19358;SDS011;9815;52.334;20.890;2022-08-21T03:03:49;11.00;;;6.10;;
19358;SDS011;9815;52.334;20.890;2022-08-21T03:06:18;11.60;;;6.03;;
19358;SDS011;9815;52.334;20.890;2022-08-21T03:08:49;8.33;;;5.83;;
19358;SDS011;9815;52.334;20.890;2022-08-21T03:11:17;11.83;;;6.27;;
19358;SDS011;9815;52.334;20.890;2022-08-21T03:13:45;10.03;;;6.50;;
19358;SDS011;9815;52.334;20.890;2022-08-21T03:16:13;10.80;;;5.87;;
19358;SDS011;9815;52.334;20.890;2022-08-21T03:18:43;10.97;;;6.63;;
19358;SDS011;9815;52.334;20.890;2022-08-21T03:21:11;10.40;;;6.27;;
19358;SDS011;9815;52.334;20.890;2022-08-21T03:23:40;9.17;;;6.30;;
19358;SDS011;9815;52.334;20.890;2022-08-21T03:26:09;8.30;;;6.03;;
19358;SDS011;9815;52.334;20.890;2022-08-21T03:28:38;7.43;;;5.70;;
19358;SDS011;9815;52.334;20.890;2022-08-21T03:31:06;9.73;;;5.90;;
19358;SDS011;9815;52.334;20.890;2022-08-21T03:33:34;11.03;;;6.77;;
19358;SDS011;9815;52.334;20.890;2022-08-21T03:36:05;9.80;;;6.30;;
19358;SDS011;9815;52.334;20.890;2022-08-21T03:38:34;15.43;;;6.53;;
19358;SDS011;9815;52.334;20.890;2022-08-21T03:41:04;13.70;;;6.43;;
19358;SDS011;9815;52.334;20.890;2022-08-21T03:43:33;11.43;;;6.43;;
19358;SDS011;9815;52.334;20.890;2022-08-21T03:46:02;11.27;;;6.50;;
19358;SDS011;9815;52.334;20.890;2022-08-21T03:48:31;9.53;;;6.47;;
19358;SDS011;9815;52.334;20.890;2022-08-21T03:51:01;8.57;;;5.87;;
19358;SDS011;9815;52.334;20.890;2022-08-21T03:53:32;12.57;;;6.17;;
19358;SDS011;9815;52.334;20.890;2022-08-21T03:56:00;8.23;;;6.33;;
19358;SDS011;9815;52.334;20.890;2022-08-21T03:58:29;8.30;;;6.27;;
19358;SDS011;9815;52.334;20.890;2022-08-21T04:00:58;8.00;;;6.50;;
19358;SDS011;9815;52.334;20.890;2022-08-21T04:03:27;10.07;;;6.20;;
19358;SDS011;9815;52.334;20.890;2022-08-21T04:05:56;10.27;;;6.13;;
19358;SDS011;9815;52.334;20.890;2022-08-21T04:08:25;10.00;;;6.37;;
19358;SDS011;9815;52.334;20.890;2022-08-21T04:10:55;10.50;;;6.53;;
19358;SDS011;9815;52.334;20.890;2022-08-21T04:13:25;9.27;;;5.93;;
19358;SDS011;9815;52.334;20.890;2022-08-21T04:15:54;10.73;;;6.40;;
19358;SDS011;9815;52.334;20.890;2022-08-21T04:18:22;10.40;;;6.33;;
19358;SDS011;9815;52.334;20.890;2022-08-21T04:20:51;11.50;;;6.57;;
19358;SDS011;9815;52.334;20.890;2022-08-21T04:23:21;9.17;;;5.73;;
19358;SDS011;9815;52.334;20.890;2022-08-21T04:25:53;10.33;;;6.67;;
19358;SDS011;9815;52.334;20.890;2022-08-21T04:28:26;9.37;;;6.57;;
19358;SDS011;9815;52.334;20.890;2022-08-21T04:30:56;8.93;;;6.13;;
19358;SDS011;9815;52.334;20.890;2022-08-21T04:33:24;9.13;;;6.50;;
19358;SDS011;9815;52.334;20.890;2022-08-21T04:35:53;10.47;;;6.23;;
19358;SDS011;9815;52.334;20.890;2022-08-21T04:38:21;8.83;;;5.77;;
19358;SDS011;9815;52.334;20.890;2022-08-21T04:40:50;8.10;;;6.07;;
19358;SDS011;9815;52.334;20.890;2022-08-21T04:43:20;8.93;;;6.33;;
19358;SDS011;9815;52.334;20.890;2022-08-21T04:45:50;10.87;;;6.20;;
19358;SDS011;9815;52.334;20.890;2022-08-21T04:48:20;9.20;;;6.03;;
19358;SDS011;9815;52.334;20.890;2022-08-21T04:50:51;8.13;;;6.00;;
19358;SDS011;9815;52.334;20.890;2022-08-21T04:53:24;11.33;;;5.80;;
19358;SDS011;9815;52.334;20.890;2022-08-21T04:55:59;9.83;;;6.03;;
19358;SDS011;9815;52.334;20.890;2022-08-21T04:58:33;9.23;;;5.87;;
19358;SDS011;9815;52.334;20.890;2022-08-21T05:01:02;9.27;;;5.77;;
19358;SDS011;9815;52.334;20.890;2022-08-21T05:03:34;10.07;;;6.33;;
19358;SDS011;9815;52.334;20.890;2022-08-21T05:06:05;10.77;;;5.70;;
19358;SDS011;9815;52.334;20.890;2022-08-21T05:08:37;10.60;;;5.70;;
19358;SDS011;9815;52.334;20.890;2022-08-21T05:11:06;9.43;;;5.57;;
19358;SDS011;9815;52.334;20.890;2022-08-21T05:13:36;7.43;;;5.43;;
19358;SDS011;9815;52.334;20.890;2022-08-21T05:16:04;7.20;;;5.00;;
19358;SDS011;9815;52.334;20.890;2022-08-21T05:18:33;10.80;;;6.20;;
19358;SDS011;9815;52.334;20.890;2022-08-21T05:21:01;15.07;;;5.73;;
19358;SDS011;9815;52.334;20.890;2022-08-21T05:23:30;8.20;;;5.70;;
19358;SDS011;9815;52.334;20.890;2022-08-21T05:26:00;8.77;;;5.33;;
19358;SDS011;9815;52.334;20.890;2022-08-21T05:28:28;8.30;;;5.30;;
19358;SDS011;9815;52.334;20.890;2022-08-21T05:30:58;8.77;;;5.40;;
19358;SDS011;9815;52.334;20.890;2022-08-21T05:33:26;8.07;;;4.90;;
19358;SDS011;9815;52.334;20.890;2022-08-21T05:35:54;7.40;;;4.70;;
19358;SDS011;9815;52.334;20.890;2022-08-21T05:38:23;10.67;;;5.07;;
19358;SDS011;9815;52.334;20.890;2022-08-21T05:40:53;9.27;;;4.60;;
19358;SDS011;9815;52.334;20.890;2022-08-21T05:43:22;7.67;;;4.90;;
19358;SDS011;9815;52.334;20.890;2022-08-21T05:45:50;6.97;;;4.63;;
19358;SDS011;9815;52.334;20.890;2022-08-21T05:48:21;7.60;;;4.83;;
19358;SDS011;9815;52.334;20.890;2022-08-21T05:50:50;7.83;;;4.43;;
19358;SDS011;9815;52.334;20.890;2022-08-21T05:53:21;7.83;;;5.40;;
19358;SDS011;9815;52.334;20.890;2022-08-21T05:55:50;8.10;;;5.03;;
19358;SDS011;9815;52.334;20.890;2022-08-21T05:58:20;9.93;;;4.90;;
19358;SDS011;9815;52.334;20.890;2022-08-21T06:00:49;7.00;;;4.80;;
19358;SDS011;9815;52.334;20.890;2022-08-21T06:03:21;6.33;;;4.90;;
19358;SDS011;9815;52.334;20.890;2022-08-21T06:05:50;8.43;;;4.53;;
19358;SDS011;9815;52.334;20.890;2022-08-21T06:08:19;6.30;;;4.90;;
19358;SDS011;9815;52.334;20.890;2022-08-21T06:10:49;7.70;;;4.80;;
19358;SDS011;9815;52.334;20.890;2022-08-21T06:13:19;8.87;;;4.57;;
19358;SDS011;9815;52.334;20.890;2022-08-21T06:15:48;6.57;;;4.90;;
19358;SDS011;9815;52.334;20.890;2022-08-21T06:18:17;6.30;;;4.60;;
19358;SDS011;9815;52.334;20.890;2022-08-21T06:20:47;7.70;;;5.10;;
19358;SDS011;9815;52.334;20.890;2022-08-21T06:23:15;9.50;;;4.67;;
19358;SDS011;9815;52.334;20.890;2022-08-21T06:25:43;7.33;;;4.30;;
19358;SDS011;9815;52.334;20.890;2022-08-21T06:28:12;6.40;;;4.63;;
19358;SDS011;9815;52.334;20.890;2022-08-21T06:30:40;7.30;;;4.83;;
19358;SDS011;9815;52.334;20.890;2022-08-21T06:33:09;6.57;;;4.63;;
19358;SDS011;9815;52.334;20.890;2022-08-21T06:35:38;9.93;;;4.90;;
19358;SDS011;9815;52.334;20.890;2022-08-21T06:38:08;8.40;;;4.60;;
19358;SDS011;9815;52.334;20.890;2022-08-21T06:40:37;6.43;;;4.43;;
19358;SDS011;9815;52.334;20.890;2022-08-21T06:43:14;7.50;;;4.60;;
19358;SDS011;9815;52.334;20.890;2022-08-21T06:45:43;7.03;;;4.60;;
19358;SDS011;9815;52.334;20.890;2022-08-21T06:48:12;7.17;;;4.60;;
19358;SDS011;9815;52.334;20.890;2022-08-21T06:50:45;8.00;;;4.57;;
19358;SDS011;9815;52.334;20.890;2022-08-21T06:53:18;8.48;;;4.88;;
19358;SDS011;9815;52.334;20.890;2022-08-21T06:55:48;6.00;;;4.15;;
19358;SDS011;9815;52.334;20.890;2022-08-21T06:58:16;6.57;;;4.53;;
19358;SDS011;9815;52.334;20.890;2022-08-21T07:00:47;8.65;;;4.38;;
19358;SDS011;9815;52.334;20.890;2022-08-21T07:03:21;7.85;;;4.55;;
19358;SDS011;9815;52.334;20.890;2022-08-21T07:05:50;12.15;;;5.05;;
19358;SDS011;9815;52.334;20.890;2022-08-21T07:08:20;8.93;;;4.82;;
19358;SDS011;9815;52.334;20.890;2022-08-21T07:10:48;7.95;;;4.60;;
19358;SDS011;9815;52.334;20.890;2022-08-21T07:13:17;9.32;;;4.65;;
19358;SDS011;9815;52.334;20.890;2022-08-21T07:15:46;7.78;;;4.75;;
19358;SDS011;9815;52.334;20.890;2022-08-21T07:18:14;6.75;;;4.50;;
19358;SDS011;9815;52.334;20.890;2022-08-21T07:20:42;7.63;;;4.55;;
19358;SDS011;9815;52.334;20.890;2022-08-21T07:23:12;9.23;;;4.60;;
19358;SDS011;9815;52.334;20.890;2022-08-21T07:25:51;10.63;;;4.82;;
19358;SDS011;9815;52.334;20.890;2022-08-21T07:28:19;7.20;;;4.72;;
19358;SDS011;9815;52.334;20.890;2022-08-21T07:30:49;9.18;;;4.97;;
19358;SDS011;9815;52.334;20.890;2022-08-21T07:33:19;7.57;;;4.63;;
19358;SDS011;9815;52.334;20.890;2022-08-21T07:35:47;6.25;;;4.60;;
19358;SDS011;9815;52.334;20.890;2022-08-21T07:38:15;7.70;;;4.90;;
19358;SDS011;9815;52.334;20.890;2022-08-21T07:40:44;8.27;;;4.50;;
19358;SDS011;9815;52.334;20.890;2022-08-21T07:43:14;6.53;;;4.78;;
19358;SDS011;9815;52.334;20.890;2022-08-21T07:45:43;7.65;;;4.60;;
19358;SDS011;9815;52.334;20.890;2022-08-21T07:48:11;7.18;;;4.45;;
19358;SDS011;9815;52.334;20.890;2022-08-21T07:50:39;8.50;;;4.70;;
19358;SDS011;9815;52.334;20.890;2022-08-21T07:53:09;7.88;;;4.32;;
19358;SDS011;9815;52.334;20.890;2022-08-21T07:55:37;5.35;;;4.07;;
19358;SDS011;9815;52.334;20.890;2022-08-21T07:58:06;5.93;;;4.25;;
19358;SDS011;9815;52.334;20.890;2022-08-21T08:00:35;8.10;;;4.10;;
19358;SDS011;9815;52.334;20.890;2022-08-21T08:03:04;7.22;;;4.15;;
19358;SDS011;9815;52.334;20.890;2022-08-21T08:05:32;7.45;;;4.07;;
19358;SDS011;9815;52.334;20.890;2022-08-21T08:08:03;6.78;;;3.88;;
19358;SDS011;9815;52.334;20.890;2022-08-21T08:10:31;6.47;;;4.13;;
19358;SDS011;9815;52.334;20.890;2022-08-21T08:13:00;4.97;;;4.10;;
19358;SDS011;9815;52.334;20.890;2022-08-21T08:15:28;6.55;;;4.53;;
19358;SDS011;9815;52.334;20.890;2022-08-21T08:18:04;6.78;;;3.90;;
19358;SDS011;9815;52.334;20.890;2022-08-21T08:20:32;6.43;;;4.03;;
19358;SDS011;9815;52.334;20.890;2022-08-21T08:23:00;6.05;;;3.90;;
19358;SDS011;9815;52.334;20.890;2022-08-21T08:25:29;7.15;;;3.95;;
19358;SDS011;9815;52.334;20.890;2022-08-21T08:28:02;7.05;;;4.00;;
19358;SDS011;9815;52.334;20.890;2022-08-21T08:30:42;6.95;;;3.97;;
19358;SDS011;9815;52.334;20.890;2022-08-21T08:33:13;5.35;;;3.63;;
19358;SDS011;9815;52.334;20.890;2022-08-21T08:35:41;7.22;;;3.67;;
19358;SDS011;9815;52.334;20.890;2022-08-21T08:38:12;5.50;;;3.78;;
19358;SDS011;9815;52.334;20.890;2022-08-21T08:40:47;9.15;;;4.05;;
19358;SDS011;9815;52.334;20.890;2022-08-21T08:43:20;7.68;;;4.28;;
19358;SDS011;9815;52.334;20.890;2022-08-21T08:45:49;8.63;;;3.92;;
19358;SDS011;9815;52.334;20.890;2022-08-21T08:48:26;7.88;;;4.15;;
19358;SDS011;9815;52.334;20.890;2022-08-21T08:51:07;5.35;;;3.53;;
19358;SDS011;9815;52.334;20.890;2022-08-21T08:53:51;7.93;;;3.72;;
19358;SDS011;9815;52.334;20.890;2022-08-21T08:56:25;6.07;;;3.80;;
19358;SDS011;9815;52.334;20.890;2022-08-21T08:58:58;10.98;;;4.03;;
19358;SDS011;9815;52.334;20.890;2022-08-21T09:01:29;6.00;;;3.80;;
19358;SDS011;9815;52.334;20.890;2022-08-21T09:04:05;6.18;;;4.22;;
19358;SDS011;9815;52.334;20.890;2022-08-21T09:06:36;8.07;;;3.85;;
19358;SDS011;9815;52.334;20.890;2022-08-21T09:09:14;5.20;;;3.50;;
19358;SDS011;9815;52.334;20.890;2022-08-21T09:11:56;6.55;;;3.67;;
19358;SDS011;9815;52.334;20.890;2022-08-21T09:14:33;4.55;;;3.80;;
19358;SDS011;9815;52.334;20.890;2022-08-21T09:17:21;6.13;;;3.55;;
19358;SDS011;9815;52.334;20.890;2022-08-21T09:20:02;7.57;;;3.92;;
19358;SDS011;9815;52.334;20.890;2022-08-21T09:22:44;5.75;;;3.83;;
19358;SDS011;9815;52.334;20.890;2022-08-21T09:25:18;5.82;;;3.38;;
19358;SDS011;9815;52.334;20.890;2022-08-21T09:27:50;9.63;;;3.47;;
19358;SDS011;9815;52.334;20.890;2022-08-21T09:30:19;7.30;;;3.75;;
19358;SDS011;9815;52.334;20.890;2022-08-21T09:32:54;7.05;;;3.67;;
19358;SDS011;9815;52.334;20.890;2022-08-21T09:35:24;5.75;;;3.10;;
19358;SDS011;9815;52.334;20.890;2022-08-21T09:37:53;5.82;;;3.47;;
19358;SDS011;9815;52.334;20.890;2022-08-21T09:40:29;8.25;;;3.10;;
19358;SDS011;9815;52.334;20.890;2022-08-21T09:43:02;5.95;;;3.17;;
19358;SDS011;9815;52.334;20.890;2022-08-21T09:45:33;6.72;;;3.20;;
19358;SDS011;9815;52.334;20.890;2022-08-21T09:48:09;3.58;;;2.97;;
19358;SDS011;9815;52.334;20.890;2022-08-21T09:50:41;5.88;;;2.78;;
19358;SDS011;9815;52.334;20.890;2022-08-21T09:53:16;10.70;;;3.00;;
19358;SDS011;9815;52.334;20.890;2022-08-21T09:55:48;4.63;;;2.88;;
19358;SDS011;9815;52.334;20.890;2022-08-21T09:58:37;4.40;;;2.88;;
19358;SDS011;9815;52.334;20.890;2022-08-21T10:01:12;5.88;;;2.92;;
19358;SDS011;9815;52.334;20.890;2022-08-21T10:03:41;6.18;;;3.17;;
19358;SDS011;9815;52.334;20.890;2022-08-21T10:06:20;3.90;;;2.95;;
19358;SDS011;9815;52.334;20.890;2022-08-21T10:08:50;3.80;;;2.85;;
19358;SDS011;9815;52.334;20.890;2022-08-21T10:11:18;3.17;;;2.50;;
19358;SDS011;9815;52.334;20.890;2022-08-21T10:13:56;5.75;;;2.80;;
19358;SDS011;9815;52.334;20.890;2022-08-21T10:16:33;3.97;;;2.63;;
19358;SDS011;9815;52.334;20.890;2022-08-21T10:19:14;4.10;;;2.92;;
19358;SDS011;9815;52.334;20.890;2022-08-21T10:21:53;5.38;;;2.88;;
19358;SDS011;9815;52.334;20.890;2022-08-21T10:24:28;4.72;;;3.00;;
19358;SDS011;9815;52.334;20.890;2022-08-21T10:27:03;5.28;;;2.80;;
19358;SDS011;9815;52.334;20.890;2022-08-21T10:29:42;5.45;;;3.13;;
19358;SDS011;9815;52.334;20.890;2022-08-21T10:32:24;4.70;;;2.83;;
19358;SDS011;9815;52.334;20.890;2022-08-21T10:35:08;5.53;;;2.90;;
19358;SDS011;9815;52.334;20.890;2022-08-21T10:37:48;3.78;;;2.72;;
19358;SDS011;9815;52.334;20.890;2022-08-21T10:40:29;5.20;;;2.70;;
19358;SDS011;9815;52.334;20.890;2022-08-21T10:43:08;4.32;;;2.78;;
19358;SDS011;9815;52.334;20.890;2022-08-21T10:45:51;6.20;;;2.55;;
19358;SDS011;9815;52.334;20.890;2022-08-21T10:48:27;6.47;;;2.35;;
19358;SDS011;9815;52.334;20.890;2022-08-21T10:51:03;5.45;;;2.80;;
19358;SDS011;9815;52.334;20.890;2022-08-21T10:53:41;5.93;;;2.60;;
19358;SDS011;9815;52.334;20.890;2022-08-21T10:56:19;3.85;;;2.58;;
19358;SDS011;9815;52.334;20.890;2022-08-21T10:58:54;4.50;;;2.47;;
19358;SDS011;9815;52.334;20.890;2022-08-21T11:01:42;5.20;;;2.50;;
19358;SDS011;9815;52.334;20.890;2022-08-21T11:04:16;3.58;;;2.75;;
19358;SDS011;9815;52.334;20.890;2022-08-21T11:06:49;4.13;;;2.50;;
19358;SDS011;9815;52.334;20.890;2022-08-21T11:09:25;3.22;;;2.50;;
19358;SDS011;9815;52.334;20.890;2022-08-21T11:11:56;4.68;;;2.33;;
19358;SDS011;9815;52.334;20.890;2022-08-21T11:14:39;4.72;;;2.38;;
19358;SDS011;9815;52.334;20.890;2022-08-21T11:17:16;4.80;;;2.42;;
19358;SDS011;9815;52.334;20.890;2022-08-21T11:19:52;2.78;;;2.38;;
19358;SDS011;9815;52.334;20.890;2022-08-21T11:22:28;5.47;;;2.40;;
19358;SDS011;9815;52.334;20.890;2022-08-21T11:25:07;2.92;;;2.25;;
19358;SDS011;9815;52.334;20.890;2022-08-21T11:27:43;6.25;;;2.38;;
19358;SDS011;9815;52.334;20.890;2022-08-21T11:30:16;4.88;;;2.40;;
19358;SDS011;9815;52.334;20.890;2022-08-21T11:35:43;5.13;;;2.20;;
19358;SDS011;9815;52.334;20.890;2022-08-21T11:38:26;2.90;;;2.20;;
19358;SDS011;9815;52.334;20.890;2022-08-21T11:41:07;7.00;;;2.40;;
19358;SDS011;9815;52.334;20.890;2022-08-21T11:43:41;4.70;;;2.28;;
19358;SDS011;9815;52.334;20.890;2022-08-21T11:46:20;2.55;;;2.22;;
19358;SDS011;9815;52.334;20.890;2022-08-21T11:52:13;3.63;;;2.38;;
19358;SDS011;9815;52.334;20.890;2022-08-21T11:54:49;3.65;;;2.45;;
19358;SDS011;9815;52.334;20.890;2022-08-21T11:57:27;3.97;;;2.50;;
19358;SDS011;9815;52.334;20.890;2022-08-21T12:00:01;3.83;;;2.30;;
19358;SDS011;9815;52.334;20.890;2022-08-21T12:02:38;3.33;;;2.13;;
19358;SDS011;9815;52.334;20.890;2022-08-21T12:05:11;4.25;;;2.03;;
19358;SDS011;9815;52.334;20.890;2022-08-21T12:08:02;5.97;;;2.33;;
19358;SDS011;9815;52.334;20.890;2022-08-21T12:10:34;3.80;;;2.30;;
19358;SDS011;9815;52.334;20.890;2022-08-21T12:13:08;3.35;;;2.20;;
19358;SDS011;9815;52.334;20.890;2022-08-21T12:15:40;3.88;;;2.28;;
19358;SDS011;9815;52.334;20.890;2022-08-21T12:18:20;3.92;;;2.10;;
19358;SDS011;9815;52.334;20.890;2022-08-21T12:20:58;4.07;;;2.10;;
19358;SDS011;9815;52.334;20.890;2022-08-21T12:23:33;5.38;;;2.55;;
19358;SDS011;9815;52.334;20.890;2022-08-21T12:29:05;4.05;;;2.20;;
19358;SDS011;9815;52.334;20.890;2022-08-21T12:34:47;3.50;;;2.30;;
19358;SDS011;9815;52.334;20.890;2022-08-21T12:37:19;3.15;;;2.25;;
19358;SDS011;9815;52.334;20.890;2022-08-21T12:39:53;2.40;;;2.00;;
19358;SDS011;9815;52.334;20.890;2022-08-21T12:42:25;3.15;;;2.28;;
19358;SDS011;9815;52.334;20.890;2022-08-21T12:45:02;4.25;;;2.25;;
19358;SDS011;9815;52.334;20.890;2022-08-21T12:47:33;2.97;;;1.98;;
19358;SDS011;9815;52.334;20.890;2022-08-21T12:50:11;5.32;;;2.20;;
19358;SDS011;9815;52.334;20.890;2022-08-21T12:52:44;2.75;;;2.13;;
19358;SDS011;9815;52.334;20.890;2022-08-21T12:55:25;4.05;;;2.50;;
19358;SDS011;9815;52.334;20.890;2022-08-21T12:57:54;3.55;;;2.13;;
19358;SDS011;9815;52.334;20.890;2022-08-21T13:00:27;3.67;;;1.98;;
19358;SDS011;9815;52.334;20.890;2022-08-21T13:02:56;7.25;;;2.40;;
19358;SDS011;9815;52.334;20.890;2022-08-21T13:05:29;3.63;;;2.30;;
19358;SDS011;9815;52.334;20.890;2022-08-21T13:08:03;2.92;;;2.38;;
19358;SDS011;9815;52.334;20.890;2022-08-21T13:10:32;4.60;;;2.75;;
19358;SDS011;9815;52.334;20.890;2022-08-21T13:13:02;4.13;;;2.20;;
19358;SDS011;9815;52.334;20.890;2022-08-21T13:15:40;6.03;;;2.40;;
19358;SDS011;9815;52.334;20.890;2022-08-21T13:18:19;3.72;;;2.50;;
19358;SDS011;9815;52.334;20.890;2022-08-21T13:20:50;4.93;;;2.47;;
19358;SDS011;9815;52.334;20.890;2022-08-21T13:23:20;3.42;;;2.58;;
19358;SDS011;9815;52.334;20.890;2022-08-21T13:25:52;3.13;;;2.40;;
19358;SDS011;9815;52.334;20.890;2022-08-21T13:28:21;5.32;;;2.40;;
19358;SDS011;9815;52.334;20.890;2022-08-21T13:30:51;4.40;;;2.58;;
19358;SDS011;9815;52.334;20.890;2022-08-21T13:33:22;5.28;;;2.38;;
19358;SDS011;9815;52.334;20.890;2022-08-21T13:36:03;3.70;;;2.38;;
19358;SDS011;9815;52.334;20.890;2022-08-21T13:38:37;4.25;;;2.97;;
19358;SDS011;9815;52.334;20.890;2022-08-21T13:41:09;4.75;;;2.97;;
19358;SDS011;9815;52.334;20.890;2022-08-21T13:43:55;4.78;;;2.92;;
19358;SDS011;9815;52.334;20.890;2022-08-21T13:46:28;4.63;;;2.45;;
19358;SDS011;9815;52.334;20.890;2022-08-21T13:48:58;5.68;;;2.58;;
19358;SDS011;9815;52.334;20.890;2022-08-21T13:51:28;3.80;;;2.53;;
19358;SDS011;9815;52.334;20.890;2022-08-21T13:53:57;3.13;;;2.53;;
19358;SDS011;9815;52.334;20.890;2022-08-21T13:56:27;5.32;;;2.50;;
19358;SDS011;9815;52.334;20.890;2022-08-21T13:58:59;6.32;;;2.72;;
19358;SDS011;9815;52.334;20.890;2022-08-21T14:01:31;3.70;;;2.72;;
19358;SDS011;9815;52.334;20.890;2022-08-21T14:04:04;3.22;;;2.72;;
19358;SDS011;9815;52.334;20.890;2022-08-21T14:06:39;3.10;;;2.20;;
19358;SDS011;9815;52.334;20.890;2022-08-21T14:09:08;3.78;;;2.60;;
19358;SDS011;9815;52.334;20.890;2022-08-21T14:11:38;4.32;;;2.40;;
19358;SDS011;9815;52.334;20.890;2022-08-21T14:14:12;6.03;;;2.30;;
19358;SDS011;9815;52.334;20.890;2022-08-21T14:16:52;3.97;;;2.55;;
19358;SDS011;9815;52.334;20.890;2022-08-21T14:19:24;3.28;;;2.30;;
19358;SDS011;9815;52.334;20.890;2022-08-21T14:21:54;4.85;;;2.70;;
19358;SDS011;9815;52.334;20.890;2022-08-21T14:24:27;3.85;;;2.45;;
19358;SDS011;9815;52.334;20.890;2022-08-21T14:27:04;3.38;;;2.20;;
19358;SDS011;9815;52.334;20.890;2022-08-21T14:29:35;3.92;;;2.08;;
19358;SDS011;9815;52.334;20.890;2022-08-21T14:32:13;3.75;;;2.30;;
19358;SDS011;9815;52.334;20.890;2022-08-21T14:34:50;3.03;;;2.25;;
19358;SDS011;9815;52.334;20.890;2022-08-21T14:37:20;4.03;;;2.20;;
19358;SDS011;9815;52.334;20.890;2022-08-21T14:39:48;3.05;;;2.20;;
19358;SDS011;9815;52.334;20.890;2022-08-21T14:42:17;3.33;;;2.13;;
19358;SDS011;9815;52.334;20.890;2022-08-21T14:44:45;3.42;;;2.10;;
19358;SDS011;9815;52.334;20.890;2022-08-21T14:47:15;2.65;;;2.25;;
19358;SDS011;9815;52.334;20.890;2022-08-21T14:49:43;3.00;;;2.00;;
19358;SDS011;9815;52.334;20.890;2022-08-21T14:52:11;3.38;;;2.30;;
19358;SDS011;9815;52.334;20.890;2022-08-21T14:54:40;3.92;;;2.25;;
19358;SDS011;9815;52.334;20.890;2022-08-21T14:57:09;2.15;;;1.95;;
19358;SDS011;9815;52.334;20.890;2022-08-21T14:59:38;3.60;;;2.25;;
19358;SDS011;9815;52.334;20.890;2022-08-21T15:02:07;4.57;;;2.25;;
19358;SDS011;9815;52.334;20.890;2022-08-21T15:04:37;3.78;;;1.90;;
19358;SDS011;9815;52.334;20.890;2022-08-21T15:07:06;3.38;;;2.08;;
19358;SDS011;9815;52.334;20.890;2022-08-21T15:09:34;3.22;;;2.35;;
19358;SDS011;9815;52.334;20.890;2022-08-21T15:12:02;3.05;;;2.00;;
19358;SDS011;9815;52.334;20.890;2022-08-21T15:14:32;3.78;;;2.50;;
19358;SDS011;9815;52.334;20.890;2022-08-21T15:17:03;4.35;;;2.20;;
19358;SDS011;9815;52.334;20.890;2022-08-21T15:19:33;3.80;;;2.28;;
19358;SDS011;9815;52.334;20.890;2022-08-21T15:22:03;3.53;;;2.20;;
19358;SDS011;9815;52.334;20.890;2022-08-21T15:24:40;4.20;;;2.35;;